createdAt,value
2019-06-08T00:02:09.311Z,27.57
2019-06-08T00:04:36.666Z,30.33
2019-06-08T00:07:03.938Z,24.80
2019-06-08T00:09:31.274Z,26.17
2019-06-08T00:11:58.630Z,28.07
2019-06-08T00:14:25.843Z,27.53
2019-06-08T00:16:53.107Z,26.23
2019-06-08T00:19:21.451Z,26.10
2019-06-08T00:21:49.027Z,24.90
2019-06-08T00:24:16.373Z,25.50
2019-06-08T00:26:43.677Z,24.30
2019-06-08T00:29:11.075Z,24.73
2019-06-08T00:31:38.693Z,24.33
2019-06-08T00:34:05.957Z,24.87
2019-06-08T00:36:33.317Z,24.37
2019-06-08T00:39:00.565Z,24.50
2019-06-08T00:41:27.846Z,24.43
2019-06-08T00:43:55.100Z,26.30
2019-06-08T00:46:23.499Z,29.43
2019-06-08T00:48:51.132Z,26.87
2019-06-08T00:51:18.984Z,25.07
2019-06-08T00:53:46.866Z,24.83
2019-06-08T00:56:14.235Z,24.30
2019-06-08T00:58:41.741Z,24.43
2019-06-08T01:01:09.172Z,24.47
2019-06-08T01:03:36.399Z,25.80
2019-06-08T01:06:03.753Z,26.30
2019-06-08T01:08:31.096Z,24.07
2019-06-08T01:10:58.378Z,25.57
2019-06-08T01:13:26.873Z,25.30
2019-06-08T01:15:54.349Z,24.73
2019-06-08T01:18:22.955Z,24.37
2019-06-08T01:20:50.792Z,25.90
2019-06-08T01:23:19.387Z,27.40
2019-06-08T01:25:46.971Z,24.10
2019-06-08T01:28:14.243Z,24.67
2019-06-08T01:30:41.470Z,26.67
2019-06-08T01:33:08.824Z,25.27
2019-06-08T01:35:36.087Z,26.37
2019-06-08T01:38:03.710Z,26.40
2019-06-08T01:40:31.563Z,24.60
2019-06-08T01:42:59.046Z,24.40
2019-06-08T01:45:33.014Z,24.50
2019-06-08T01:48:16.003Z,26.67
2019-06-08T01:50:32.780Z,24.23
2019-06-08T01:53:00.338Z,26.37
2019-06-08T01:55:27.601Z,29.33
2019-06-08T01:57:54.913Z,26.57
2019-06-08T02:00:35.235Z,25.10
2019-06-08T02:02:51.745Z,27.00
2019-06-08T02:05:19.137Z,29.00
2019-06-08T02:07:46.441Z,29.73
2019-06-08T02:10:13.851Z,25.33
2019-06-08T02:12:41.177Z,26.80
2019-06-08T02:15:09.185Z,25.17
2019-06-08T02:17:36.443Z,26.23
2019-06-08T02:20:05.441Z,26.37
2019-06-08T02:22:33.048Z,27.90
2019-06-08T02:25:00.663Z,26.50
2019-06-08T02:27:28.974Z,26.83
2019-06-08T02:29:56.469Z,27.37
2019-06-08T02:32:23.708Z,28.20
2019-06-08T02:34:50.922Z,28.47
2019-06-08T02:37:18.135Z,25.80
2019-06-08T02:39:45.448Z,28.30
2019-06-08T02:42:12.626Z,29.63
2019-06-08T02:44:40.658Z,26.73
2019-06-08T02:47:08.134Z,30.83
2019-06-08T02:49:37.089Z,26.37
2019-06-08T02:52:05.558Z,29.33
2019-06-08T02:54:35.416Z,26.43
2019-06-08T02:57:03.728Z,32.57
2019-06-08T02:59:35.669Z,32.77
2019-06-08T03:02:03.590Z,31.40
2019-06-08T03:04:36.498Z,30.87
2019-06-08T03:07:04.090Z,26.53
2019-06-08T03:09:34.649Z,30.03
2019-06-08T03:12:02.764Z,30.63
2019-06-08T03:14:33.185Z,28.70
2019-06-08T03:17:00.604Z,27.00
2019-06-08T03:19:27.850Z,30.90
2019-06-08T03:21:55.179Z,29.87
2019-06-08T03:24:22.448Z,31.50
2019-06-08T03:26:49.722Z,31.07
2019-06-08T03:29:16.974Z,29.17
2019-06-08T03:31:54.344Z,36.27
2019-06-08T03:34:13.451Z,29.67
2019-06-08T03:36:53.711Z,32.07
2019-06-08T03:39:09.917Z,33.43
2019-06-08T03:41:38.507Z,29.67
2019-06-08T03:44:06.267Z,28.57
2019-06-08T03:46:34.489Z,26.70
2019-06-08T03:49:01.835Z,28.13
2019-06-08T03:51:29.197Z,29.77
2019-06-08T03:53:56.508Z,28.40
2019-06-08T03:56:23.983Z,28.07
2019-06-08T03:58:51.248Z,29.50
2019-06-08T04:01:18.795Z,31.50
2019-06-08T04:03:46.426Z,33.10
2019-06-08T04:06:13.833Z,28.20
2019-06-08T04:08:44.288Z,31.53
2019-06-08T04:11:10.216Z,27.87
2019-06-08T04:13:37.754Z,28.10
2019-06-08T04:16:05.146Z,29.37
2019-06-08T04:18:32.437Z,29.90
2019-06-08T04:20:59.640Z,29.10
2019-06-08T04:23:26.841Z,28.60
2019-06-08T04:25:54.086Z,27.53
2019-06-08T04:28:21.301Z,27.73
2019-06-08T04:30:49.876Z,27.57
2019-06-08T04:33:18.006Z,28.97
2019-06-08T04:35:46.949Z,29.07
2019-06-08T04:38:14.470Z,29.40
2019-06-08T04:40:43.371Z,27.30
2019-06-08T04:43:11.425Z,30.20
2019-06-08T04:45:39.285Z,31.60
2019-06-08T04:48:09.738Z,29.10
2019-06-08T04:50:38.529Z,31.40
2019-06-08T04:53:05.940Z,28.00
2019-06-08T04:55:33.266Z,27.63
2019-06-08T04:58:00.569Z,26.20
2019-06-08T05:00:31.274Z,27.60
2019-06-08T05:02:56.878Z,26.70
2019-06-08T05:05:24.167Z,27.67
2019-06-08T05:07:51.403Z,29.60
2019-06-08T05:10:18.665Z,28.33
2019-06-08T05:12:47.755Z,26.10
2019-06-08T05:15:15.030Z,26.53
2019-06-08T05:17:43.283Z,29.20
2019-06-08T05:20:11.029Z,27.60
2019-06-08T05:22:39.460Z,30.73
2019-06-08T05:25:06.980Z,28.37
2019-06-08T05:27:34.309Z,25.30
2019-06-08T05:30:08.312Z,28.07
2019-06-08T05:32:31.634Z,26.60
2019-06-08T05:34:59.005Z,26.07
2019-06-08T05:37:26.435Z,29.77
2019-06-08T05:39:53.725Z,29.70
2019-06-08T05:42:21.010Z,24.77
2019-06-08T05:44:48.320Z,25.60
2019-06-08T05:47:15.604Z,27.10
2019-06-08T05:49:43.703Z,26.57
2019-06-08T05:52:11.081Z,26.80
2019-06-08T05:54:39.793Z,27.17
2019-06-08T05:57:07.586Z,26.30
2019-06-08T05:59:34.798Z,27.07
2019-06-08T06:02:02.177Z,31.60
2019-06-08T06:04:29.340Z,27.67
2019-06-08T06:06:56.577Z,27.40
2019-06-08T06:09:23.813Z,27.90
2019-06-08T06:11:51.318Z,25.97
2019-06-08T06:14:18.656Z,33.07
2019-06-08T06:16:46.924Z,29.17
2019-06-08T06:19:14.341Z,24.70
2019-06-08T06:21:41.648Z,35.13
2019-06-08T06:24:09.301Z,27.87
2019-06-08T06:26:36.537Z,26.90
2019-06-08T06:29:03.950Z,25.90
2019-06-08T06:31:31.453Z,31.50
2019-06-08T06:33:58.720Z,25.27
2019-06-08T06:36:26.050Z,24.87
2019-06-08T06:38:53.397Z,31.47
2019-06-08T06:41:20.732Z,24.17
2019-06-08T06:43:48.137Z,25.87
2019-06-08T06:46:15.495Z,26.30
2019-06-08T06:48:43.963Z,26.20
2019-06-08T06:51:25.278Z,24.77
2019-06-08T06:53:42.664Z,24.60
2019-06-08T06:56:09.955Z,26.13
2019-06-08T06:58:37.196Z,27.50
2019-06-08T07:01:04.426Z,26.10
2019-06-08T07:03:31.691Z,25.60
2019-06-08T07:05:59.905Z,25.57
2019-06-08T07:08:27.141Z,28.50
2019-06-08T07:10:55.221Z,30.83
2019-06-08T07:13:22.793Z,30.93
2019-06-08T07:15:54.114Z,27.03
2019-06-08T07:18:18.979Z,29.20
2019-06-08T07:20:46.209Z,25.40
2019-06-08T07:23:13.797Z,35.10
2019-06-08T07:25:41.130Z,28.10
2019-06-08T07:28:08.681Z,27.80
2019-06-08T07:30:35.901Z,27.93
2019-06-08T07:33:03.268Z,26.33
2019-06-08T07:35:31.149Z,26.70
2019-06-08T07:37:59.613Z,30.33
2019-06-08T07:40:27.281Z,26.17
2019-06-08T07:42:55.284Z,26.53
2019-06-08T07:45:23.780Z,28.13
2019-06-08T07:47:52.022Z,27.83
2019-06-08T07:50:19.330Z,24.57
2019-06-08T07:52:46.557Z,25.03
2019-06-08T07:55:15.602Z,31.30
2019-06-08T07:57:42.857Z,27.60
2019-06-08T08:00:10.221Z,29.57
2019-06-08T08:02:37.719Z,24.60
2019-06-08T08:05:05.150Z,26.80
2019-06-08T08:07:32.412Z,26.77
2019-06-08T08:09:59.557Z,27.20
2019-06-08T08:12:26.850Z,27.37
2019-06-08T08:14:55.242Z,26.40
2019-06-08T08:17:22.716Z,26.70
2019-06-08T08:19:51.123Z,27.70
2019-06-08T08:22:25.672Z,25.17
2019-06-08T08:24:50.435Z,26.90
2019-06-08T08:27:17.960Z,30.47
2019-06-08T08:29:47.472Z,26.80
2019-06-08T08:32:14.489Z,30.77
2019-06-08T08:34:41.708Z,25.07
2019-06-08T08:37:09.861Z,26.70
2019-06-08T08:39:37.773Z,29.20
2019-06-08T08:42:05.559Z,25.27
2019-06-08T08:44:32.845Z,26.27
2019-06-08T08:47:02.580Z,26.77
2019-06-08T08:49:29.187Z,24.27
2019-06-08T08:51:59.018Z,27.10
2019-06-08T08:54:27.551Z,25.40
2019-06-08T08:56:57.248Z,28.03
2019-06-08T08:59:24.017Z,31.23
2019-06-08T09:01:52.583Z,25.50
2019-06-08T09:04:20.174Z,27.33
2019-06-08T09:06:50.989Z,25.30
2019-06-08T09:09:21.618Z,30.47
2019-06-08T09:11:48.538Z,26.60
2019-06-08T09:14:18.378Z,34.37
2019-06-08T09:16:47.975Z,24.83
2019-06-08T09:19:14.899Z,25.17
2019-06-08T09:21:42.115Z,27.67
2019-06-08T09:24:09.653Z,26.60
2019-06-08T09:26:38.251Z,29.20
2019-06-08T09:29:10.721Z,25.20
2019-06-08T09:31:34.886Z,24.80
2019-06-08T09:34:10.452Z,27.47
2019-06-08T09:36:31.494Z,27.10
2019-06-08T09:39:00.658Z,24.67
2019-06-08T09:41:31.172Z,30.30
2019-06-08T09:44:00.181Z,25.30
2019-06-08T09:46:27.800Z,24.93
2019-06-08T09:48:58.377Z,25.10
2019-06-08T09:51:24.485Z,27.10
2019-06-08T09:53:54.220Z,30.60
2019-06-08T09:56:21.114Z,29.63
2019-06-08T09:58:55.964Z,32.03
2019-06-08T10:01:28.692Z,26.27
2019-06-08T10:03:56.775Z,25.67
2019-06-08T10:06:25.329Z,26.03
2019-06-08T10:08:52.554Z,24.80
2019-06-08T10:11:19.771Z,27.40
2019-06-08T10:13:47.785Z,23.90
2019-06-08T10:16:18.794Z,25.87
2019-06-08T10:18:51.112Z,23.60
2019-06-08T10:21:15.373Z,25.83
2019-06-08T10:23:42.627Z,23.60
2019-06-08T10:26:10.750Z,27.70
2019-06-08T10:28:38.999Z,23.57
2019-06-08T10:31:06.934Z,28.27
2019-06-08T10:33:34.618Z,25.60
2019-06-08T10:36:05.211Z,25.43
2019-06-08T10:38:31.073Z,27.77
2019-06-08T10:41:06.460Z,31.53
2019-06-08T10:43:31.442Z,24.20
2019-06-08T10:46:02.869Z,25.90
2019-06-08T10:48:28.969Z,24.30
2019-06-08T10:50:58.527Z,25.83
2019-06-08T10:53:29.805Z,26.90
2019-06-08T10:55:57.950Z,27.80
2019-06-08T10:58:25.093Z,28.63
2019-06-08T11:00:52.298Z,29.93
2019-06-08T11:03:19.945Z,26.77
2019-06-08T11:05:48.306Z,26.60
2019-06-08T11:08:18.687Z,24.80
2019-06-08T11:10:47.521Z,23.10
2019-06-08T11:13:15.478Z,27.00
2019-06-08T11:15:44.519Z,23.07
2019-06-08T11:18:13.542Z,24.00
2019-06-08T11:20:40.900Z,24.20
2019-06-08T11:23:12.268Z,24.00
2019-06-08T11:25:37.721Z,23.23
2019-06-08T11:28:07.954Z,23.60
2019-06-08T11:30:34.134Z,24.93
2019-06-08T11:33:02.088Z,31.47
2019-06-08T11:35:29.391Z,24.80
2019-06-08T11:37:58.530Z,25.07
2019-06-08T11:40:27.723Z,24.80
2019-06-08T11:42:54.995Z,24.47
2019-06-08T11:45:22.341Z,26.07
2019-06-08T11:47:50.592Z,24.30
2019-06-08T11:50:32.453Z,23.17
2019-06-08T11:53:00.621Z,23.10
2019-06-08T11:55:29.537Z,23.37
2019-06-08T11:57:58.572Z,23.93
2019-06-08T12:01:00.808Z,21.90
2019-06-08T12:03:27.645Z,23.20
2019-06-08T12:05:58.334Z,27.23
2019-06-08T12:08:28.159Z,24.90
2019-06-08T12:11:01.068Z,22.50
2019-06-08T12:13:24.337Z,24.67
2019-06-08T12:15:51.934Z,24.20
2019-06-08T12:18:19.190Z,22.73
2019-06-08T12:20:48.687Z,25.60
2019-06-08T12:23:15.530Z,25.83
2019-06-08T12:25:43.038Z,23.00
2019-06-08T12:28:10.644Z,25.73
2019-06-08T12:30:38.461Z,22.50
2019-06-08T12:33:07.430Z,22.93
2019-06-08T12:35:35.332Z,23.30
2019-06-08T12:38:02.592Z,21.30
2019-06-08T12:40:29.849Z,22.90
2019-06-08T12:42:59.519Z,21.37
2019-06-08T12:45:27.604Z,22.43
2019-06-08T12:47:55.062Z,20.13
2019-06-08T12:50:22.341Z,21.80
2019-06-08T12:52:49.565Z,20.30
2019-06-08T12:55:22.259Z,22.20
2019-06-08T12:57:48.401Z,24.23
2019-06-08T13:00:17.530Z,24.10
2019-06-08T13:02:50.774Z,20.67
2019-06-08T13:05:22.481Z,23.10
2019-06-08T13:07:47.881Z,21.63
2019-06-08T13:10:15.358Z,20.90
2019-06-08T13:12:42.728Z,20.97
2019-06-08T13:15:11.261Z,18.90
2019-06-08T13:17:39.176Z,21.87
2019-06-08T13:20:14.841Z,23.03
2019-06-08T13:22:42.089Z,17.87
2019-06-08T13:25:21.114Z,17.87
2019-06-08T13:27:38.560Z,20.13
2019-06-08T13:30:07.534Z,16.57
2019-06-08T13:32:35.049Z,16.50
2019-06-08T13:35:02.694Z,17.27
2019-06-08T13:37:29.871Z,18.13
2019-06-08T13:39:59.195Z,18.70
2019-06-08T13:42:29.045Z,20.80
2019-06-08T13:44:57.827Z,21.07
2019-06-08T13:47:25.276Z,19.00
2019-06-08T13:49:52.523Z,19.80
2019-06-08T13:52:32.837Z,19.27
2019-06-08T13:54:59.716Z,20.07
2019-06-08T13:57:26.688Z,18.37
2019-06-08T13:59:53.560Z,18.60
2019-06-08T14:02:26.385Z,19.00
2019-06-08T14:04:49.320Z,29.93
2019-06-08T14:07:19.980Z,20.00
2019-06-08T14:09:45.856Z,22.13
2019-06-08T14:12:14.747Z,26.10
2019-06-08T14:14:41.772Z,20.00
2019-06-08T14:17:08.761Z,20.57
2019-06-08T14:19:35.732Z,23.30
2019-06-08T14:22:03.884Z,24.20
2019-06-08T14:24:34.479Z,24.73
2019-06-08T14:27:03.200Z,21.97
2019-06-08T14:29:30.568Z,22.27
2019-06-08T14:31:57.916Z,22.57
2019-06-08T14:34:26.244Z,23.37
2019-06-08T14:36:54.332Z,22.30
2019-06-08T14:39:21.941Z,21.00
2019-06-08T14:41:50.068Z,25.03
2019-06-08T14:44:19.427Z,24.03
2019-06-08T14:46:47.975Z,22.00
2019-06-08T14:49:14.776Z,22.67
2019-06-08T14:51:48.519Z,31.90
2019-06-08T14:54:18.516Z,26.10
2019-06-08T14:56:44.913Z,22.57
2019-06-08T14:59:11.920Z,21.40
2019-06-08T15:01:38.780Z,21.87
2019-06-08T15:04:05.873Z,22.53
2019-06-08T15:06:34.321Z,22.87
2019-06-08T15:09:01.537Z,23.77
2019-06-08T15:11:33.213Z,26.97
2019-06-08T15:13:58.502Z,21.27
2019-06-08T15:16:25.843Z,20.47
2019-06-08T15:18:52.745Z,22.50
2019-06-08T15:21:21.078Z,20.40
2019-06-08T15:23:48.396Z,27.40
2019-06-08T15:26:23.929Z,20.97
2019-06-08T15:28:44.309Z,22.73
2019-06-08T15:31:11.184Z,22.20
2019-06-08T15:33:38.450Z,22.00
2019-06-08T15:36:05.623Z,21.07
2019-06-08T15:38:33.535Z,20.70
2019-06-08T15:41:00.599Z,22.50
2019-06-08T15:43:36.877Z,24.60
2019-06-08T15:46:02.624Z,23.50
2019-06-08T15:48:32.187Z,22.77
2019-06-08T15:50:58.516Z,23.00
2019-06-08T15:53:27.089Z,21.67
2019-06-08T15:55:54.756Z,22.27
2019-06-08T15:58:22.640Z,21.17
2019-06-08T16:00:49.884Z,23.87
2019-06-08T16:03:16.777Z,21.70
2019-06-08T16:05:43.683Z,22.80
2019-06-08T16:08:10.560Z,23.37
2019-06-08T16:10:37.428Z,26.23
2019-06-08T16:13:04.504Z,22.10
2019-06-08T16:15:33.075Z,23.02
2019-06-08T16:18:00.648Z,26.23
2019-06-08T16:20:27.627Z,29.30
2019-06-08T16:22:54.772Z,24.83
2019-06-08T16:25:21.755Z,25.57
2019-06-08T16:27:48.972Z,25.30
2019-06-08T16:30:16.142Z,25.93
2019-06-08T16:32:43.125Z,25.77
2019-06-08T16:35:10.751Z,25.97
2019-06-08T16:37:37.716Z,25.00
2019-06-08T16:40:04.918Z,25.40
2019-06-08T16:42:32.461Z,25.10
2019-06-08T16:44:59.456Z,25.27
2019-06-08T16:47:26.979Z,26.33
2019-06-08T16:49:54.108Z,31.40
2019-06-08T16:52:21.288Z,27.30
2019-06-08T16:54:48.150Z,28.97
2019-06-08T16:57:15.032Z,26.70
2019-06-08T16:59:44.346Z,26.40
2019-06-08T17:02:11.368Z,27.23
2019-06-08T17:04:39.176Z,24.60
2019-06-08T17:07:08.628Z,25.23
2019-06-08T17:09:35.943Z,24.67
2019-06-08T17:12:04.268Z,26.53
2019-06-08T17:14:31.984Z,25.90
2019-06-08T17:16:59.392Z,32.53
2019-06-08T17:19:26.266Z,26.90
2019-06-08T17:21:53.232Z,24.37
2019-06-08T17:24:20.184Z,24.80
2019-06-08T17:26:47.056Z,25.90
2019-06-08T17:29:13.926Z,26.77
2019-06-08T17:31:41.372Z,29.67
2019-06-08T17:34:08.459Z,26.87
2019-06-08T17:36:36.487Z,27.53
2019-06-08T17:39:05.568Z,28.30
2019-06-08T17:41:32.540Z,35.10
2019-06-08T17:43:59.521Z,27.73
2019-06-08T17:46:32.787Z,27.80
2019-06-08T17:48:59.708Z,29.20
2019-06-08T17:51:26.584Z,28.93
2019-06-08T17:53:53.445Z,30.37
2019-06-08T17:56:20.304Z,28.63
2019-06-08T17:58:47.285Z,26.70
2019-06-08T18:01:14.244Z,28.53
2019-06-08T18:03:42.633Z,27.47
2019-06-08T18:06:09.984Z,29.77
2019-06-08T18:08:40.557Z,31.13
2019-06-08T18:11:07.916Z,32.40
2019-06-08T18:13:36.874Z,36.23
2019-06-08T18:16:03.964Z,38.70
2019-06-08T18:18:31.024Z,35.33
2019-06-08T18:20:58.391Z,32.80
2019-06-08T18:23:25.354Z,33.40
2019-06-08T18:25:54.264Z,32.43
2019-06-08T18:28:21.243Z,37.63
2019-06-08T18:30:49.348Z,29.20
2019-06-08T18:33:18.064Z,30.67
2019-06-08T18:35:46.864Z,29.10
2019-06-08T18:38:14.681Z,27.90
2019-06-08T18:40:41.992Z,29.47
2019-06-08T18:43:10.150Z,27.13
2019-06-08T18:45:39.510Z,29.80
2019-06-08T18:48:07.117Z,31.40
2019-06-08T18:50:35.207Z,29.77
2019-06-08T18:53:03.052Z,32.43
2019-06-08T18:55:30.016Z,30.00
2019-06-08T18:57:57.833Z,31.57
2019-06-08T19:00:39.750Z,30.90
2019-06-08T19:03:07.170Z,32.67
2019-06-08T19:05:34.856Z,31.80
2019-06-08T19:08:03.486Z,35.20
2019-06-08T19:10:32.075Z,31.70
2019-06-08T19:12:59.032Z,31.83
2019-06-08T19:15:31.471Z,32.13
2019-06-08T19:17:58.365Z,32.57
2019-06-08T19:20:25.233Z,33.17
2019-06-08T19:22:54.270Z,34.80
2019-06-08T19:25:20.987Z,35.90
2019-06-08T19:27:53.031Z,34.30
2019-06-08T19:30:20.095Z,34.53
2019-06-08T19:32:50.090Z,35.87
2019-06-08T19:35:14.316Z,35.90
2019-06-08T19:37:41.944Z,36.33
2019-06-08T19:40:09.283Z,35.60
2019-06-08T19:42:44.759Z,46.70
2019-06-08T19:45:08.587Z,39.03
2019-06-08T19:47:35.151Z,39.43
2019-06-08T19:50:02.413Z,37.20
2019-06-08T19:52:29.288Z,41.63
2019-06-08T19:54:58.065Z,41.77
2019-06-08T19:57:24.946Z,45.13
2019-06-08T19:59:51.920Z,44.37
2019-06-08T20:02:18.967Z,45.47
2019-06-08T20:04:46.858Z,43.10
2019-06-08T20:07:14.105Z,43.87
2019-06-08T20:09:41.696Z,46.13
2019-06-08T20:12:08.775Z,44.13
2019-06-08T20:14:37.398Z,43.20
2019-06-08T20:17:04.808Z,40.77
2019-06-08T20:19:32.096Z,43.37
2019-06-08T20:21:59.480Z,46.77
2019-06-08T20:24:27.823Z,48.33
2019-06-08T20:26:55.310Z,46.37
2019-06-08T20:29:22.516Z,50.07
2019-06-08T20:31:51.522Z,44.07
2019-06-08T20:34:19.091Z,46.10
2019-06-08T20:36:46.794Z,49.70
2019-06-08T20:39:14.013Z,50.50
2019-06-08T20:41:41.748Z,49.33
2019-06-08T20:44:09.215Z,48.00
2019-06-08T20:46:37.796Z,51.57
2019-06-08T20:49:05.154Z,51.43
2019-06-08T20:51:32.451Z,52.70
2019-06-08T20:53:59.612Z,59.27
2019-06-08T20:56:28.142Z,58.17
2019-06-08T20:58:57.403Z,61.33
2019-06-08T21:01:27.228Z,57.93
2019-06-08T21:03:56.706Z,63.20
2019-06-08T21:06:23.640Z,60.07
2019-06-08T21:08:52.398Z,56.90
2019-06-08T21:11:19.980Z,60.33
2019-06-08T21:13:49.637Z,58.83
2019-06-08T21:16:18.176Z,59.33
2019-06-08T21:18:45.140Z,59.83
2019-06-08T21:21:12.267Z,58.57
2019-06-08T21:23:39.381Z,53.13
2019-06-08T21:26:07.947Z,61.80
2019-06-08T21:28:35.555Z,57.73
2019-06-08T21:31:03.300Z,59.93
2019-06-08T21:33:30.468Z,65.30
2019-06-08T21:36:04.354Z,65.37
2019-06-08T21:38:28.172Z,62.17
2019-06-08T21:40:59.680Z,70.20
2019-06-08T21:43:24.099Z,70.77
2019-06-08T21:45:52.087Z,78.27
2019-06-08T21:48:20.260Z,70.97
2019-06-08T21:50:48.984Z,77.03
2019-06-08T21:53:17.998Z,84.13
2019-06-08T21:55:44.796Z,79.93
2019-06-08T21:58:12.002Z,87.93
2019-06-08T22:00:43.419Z,85.37
2019-06-08T22:03:09.143Z,87.83
2019-06-08T22:05:37.718Z,91.33
2019-06-08T22:08:04.992Z,95.90
2019-06-08T22:10:31.969Z,85.37
2019-06-08T22:13:00.745Z,104.03
2019-06-08T22:15:27.863Z,101.63
2019-06-08T22:17:54.942Z,100.63
2019-06-08T22:20:21.844Z,99.87
2019-06-08T22:22:49.147Z,99.97
2019-06-08T22:25:17.566Z,104.77
2019-06-08T22:27:46.036Z,102.70
2019-06-08T22:30:22.813Z,97.13
2019-06-08T22:32:42.532Z,103.07
2019-06-08T22:35:09.619Z,106.33
2019-06-08T22:37:38.021Z,112.17
2019-06-08T22:40:07.932Z,118.13
2019-06-08T22:42:34.182Z,101.60
2019-06-08T22:45:02.574Z,110.17
2019-06-08T22:47:30.171Z,109.93
2019-06-08T22:49:59.866Z,114.33
2019-06-08T22:52:27.693Z,103.00
2019-06-08T22:54:58.409Z,103.30
2019-06-08T22:57:23.579Z,90.03
2019-06-08T22:59:50.532Z,95.63
2019-06-08T23:02:18.261Z,99.77
2019-06-08T23:04:47.454Z,108.43
2019-06-08T23:07:28.383Z,106.60
2019-06-08T23:09:43.301Z,112.90
2019-06-08T23:12:10.605Z,111.93
2019-06-08T23:14:37.733Z,100.40
2019-06-08T23:17:05.557Z,107.37
2019-06-08T23:19:32.606Z,109.07
2019-06-08T23:22:01.062Z,124.07
2019-06-08T23:24:28.448Z,113.07
2019-06-08T23:26:55.695Z,118.27
2019-06-08T23:29:22.685Z,126.10
2019-06-08T23:31:49.823Z,114.20
2019-06-08T23:34:18.351Z,114.93
2019-06-08T23:36:57.591Z,116.77
2019-06-08T23:39:14.284Z,110.57
2019-06-08T23:41:41.260Z,132.47
2019-06-08T23:44:08.124Z,129.67
2019-06-08T23:46:35.411Z,127.00
2019-06-08T23:49:04.365Z,119.20
2019-06-08T23:51:31.959Z,122.77
2019-06-08T23:54:02.026Z,110.40
2019-06-08T23:56:28.171Z,113.75
2019-06-08T23:58:55.052Z,124.23
